Blue Hill Meteorological Observatory

42° 12' 44"N, 71° 06' 53"W, Elevation 635 ft.
Eastern Time

Hourly observations for the last 72 hours

Date Time Temperature (°F) Humi-
dity

(%)
Wind
(mph)
Pressure Rain (in) Sun
(W/m2)
ET
(in)
Air Dew 6 Hour 1 Hr 3 Hr 6 Hr Day
Alt
(in)
Sea
Level

(mb)
Max Min
23 12:00 78.5 74.7 88 S 11 G 29 30.23 1023.8 0.03 0.06 1109 0.039
23 11:00 77.8 72.9 85 S 12 G 24 30.24 1024.0 0.03 399 0.028
23 10:00 75.9 73.4 92 S 16 G 23 30.24 1024.2 0.01 0.01 0.03 332 0.020
23 09:00 76.1 73.3 91 S 14 G 26 30.24 1024.0 0.02 352 0.010
23 08:00 74.5 72.3 93 SSE 21 G 26 30.22 1023.2 0.02 308 0.004
23 07:00 72.5 71.9 72.5 71.3 98 SSE 16 G 25 30.21 1023.2 0.02 0.02 123 0.002
23 06:00 71.9 71.3 98 S 16 G 29 30.20 1022.8 0.02 105 0.000
23 05:00 71.7 71.1 98 SSE 17 G 31 30.19 1022.6 0.02 9 0.000
23 04:00 71.3 70.7 98 SSE 14 G 21 30.17 1021.9 0.01 0.02 0.02 0 0.000
23 03:00 71.8 71.2 98 S 15 G 25 30.17 1021.6 0.01 0 0.000
23 02:00 71.9 71.3 98 S 19 G 27 30.16 1021.5 0.01 0.01 0 0.000
23 01:00 72.1 71.2 73.0 71.6 97 SSE 16 G 27 30.17 1021.5 0.01 0.14 0.00 0 0.000
23 00:00 72.1 71.2 97 SSE 17 G 25 30.17 1021.7 0.01 0.26 0 0.066
22 23:00 71.9 71.0 97 S 14 G 22 30.18 1022.0 0.25 0 0.066
22 22:00 72.4 71.5 97 SSE 16 G 27 30.17 1021.9 0.01 0.13 0.25 0 0.066
22 21:00 72.2 71.0 96 SSE 16 G 27 30.17 1021.8 0.01 0.24 0 0.065
22 20:00 71.7 70.2 95 SSE 13 G 18 30.16 1021.4 0.11 0.23 0 0.064
22 19:00 73.0 70.2 75.7 71.8 91 SSE 12 G 18 30.15 1020.9 0.01 0.01 0.12 9 0.062
22 18:00 74.3 69.8 86 S 12 G 19 30.13 1020.4 0.12 76 0.058
22 17:00 75.3 70.1 84 SSE 14 G 21 30.13 1020.3 0.01 0.12 125 0.052
22 16:00 75.5 70.3 84 SSE 12 G 20 30.12 1020.0 0.11 271 0.044
22 15:00 74.8 70.3 86 SSE 9 G 14 30.12 1020.1 0.11 229 0.035
22 14:00 73.5 70.4 90 S 12 G 17 30.12 1020.1 0.11 207 0.027
22 13:00 71.9 70.7 71.9 67.7 96 SSE 11 G 15 30.11 1019.5 0.02 0.08 0.11 239 0.021
22 12:00 71.0 70.1 97 S 9 G 19 30.10 1019.2 0.11 209 0.016
22 11:00 71.1 70.5 98 S 8 G 14 30.09 1018.9 0.02 0.11 183 0.014
22 10:00 70.6 70.0 98 SE 8 G 16 30.08 1018.6 0.06 0.09 90 0.011
22 09:00 70.8 70.2 98 SSE 13 G 20 30.08 1018.6 0.01 0.09 102 0.009
22 08:00 69.8 69.2 98 SE 15 G 22 30.06 1017.8 0.05 0.08 51 0.007
22 07:00 67.7 66.8 67.7 62.1 97 ESE 21 G 28 30.06 1018.0 0.02 0.02 0.03 0.03 53 0.006
22 06:00 65.7 64.8 97 E 15 G 25 30.06 1018.0 0.01 25 0.005
22 05:00 64.6 63.7 97 E 17 G 24 30.07 1018.3 0.01 9 0.004
22 04:00 63.3 61.8 95 E 14 G 21 30.07 1018.3 0.01 0.01 0.01 0 0.003
22 03:00 63.2 61.1 93 E 13 G 21 30.08 1018.6 0.00 0 0.002
22 02:00 62.6 60.5 93 E 12 G 19 30.09 1018.9 0.00 0 0.001
22 01:00 62.1 59.7 64.5 61.3 92 E 11 G 18 30.09 1019.1 0.00 0 0.000
22 00:00 61.7 59.4 92 E 16 G 21 30.09 1019.2 0.00 0 0.221
21 23:00 61.4 58.8 91 E 13 G 19 30.12 1020.0 0.00 0 0.220
21 22:00 61.6 58.3 89 E 15 G 19 30.13 1020.2 0.00 0 0.219
21 21:00 62.3 58.4 87 E 11 G 16 30.14 1020.6 0.00 0 0.218
21 20:00 63.7 58.8 84 E 13 G 16 30.14 1020.6 0.00 0 0.216
21 19:00 64.5 58.9 76.7 64.5 82 ESE 9 G 13 30.14 1020.8 0.00 14 0.213
21 18:00 66.3 59.6 79 ESE 10 G 16 30.14 1020.6 0.00 86 0.207
21 17:00 68.3 60.1 75 E 11 G 14 30.13 1020.2 0.00 283 0.199
21 16:00 70.4 61.7 74 E 11 G 17 30.13 1020.4 0.00 403 0.185
21 15:00 72.1 62.6 72 ENE 11 G 20 30.12 1020.1 0.00 635 0.165
21 14:00 75.1 60.8 61 ESE 12 G 16 30.14 1020.8 0.00 807 0.141
21 13:00 76.7 58.8 76.9 68.6 54 SE 10 G 17 30.16 1021.2 0.00 991 0.114
21 12:00 73.7 59.4 61 ESE 13 G 19 30.17 1021.7 0.00 322 0.092
21 11:00 74.6 59.3 59 ESE 8 G 20 30.17 1021.7 0.00 977 0.067
21 10:00 73.9 59.6 61 E 10 G 16 30.17 1021.8 0.00 900 0.046
21 09:00 71.6 56.5 59 ESE 9 G 13 30.17 1021.9 0.00 707 0.029
21 08:00 70.1 55.1 59 ESE 8 G 12 30.18 1022.1 0.00 561 0.017
21 07:00 68.7 51.9 68.8 58.9 55 SE 2 G 3 30.18 1021.9 0.00 381 0.009
21 06:00 63.2 45.8 53 SSE 0 G 1 30.17 1021.7 0.00 100 0.007
21 05:00 61.5 44.7 54 SSW 2 G 6 30.17 1021.5 0.00 19 0.005
21 04:00 60.7 50.1 68 SSW 6 G 9 30.17 1021.7 0.00 0 0.003
21 03:00 58.9 54.7 86 S 9 G 13 30.17 1021.6 0.00 0 0.002
21 02:00 59.8 55.9 87 S 9 G 11 30.16 1021.4 0.00 0 0.001
21 01:00 61.2 56.3 71.4 61.2 84 S 8 G 12 30.16 1021.4 0.00 0 0.000
21 00:00 61.8 56.6 83 S 9 G 13 30.16 1021.4 0.00 0 0.244
20 23:00 62.5 57.9 85 S 10 G 14 30.17 1021.6 0.00 0 0.243
20 22:00 64.3 59.0 83 S 9 G 12 30.17 1021.8 0.00 0 0.241
20 21:00 66.6 59.9 79 S 8 G 11 30.17 1021.8 0.00 0 0.239
20 20:00 69.0 60.4 74 S 7 G 15 30.17 1021.7 0.00 0 0.237
20 19:00 71.3 61.4 82.1 71.3 71 SSE 9 G 13 30.16 1021.3 0.00 11 0.234
20 18:00 74.0 63.2 69 S 7 G 12 30.16 1021.4 0.00 69 0.227
20 17:00 77.1 59.2 54 SE 9 G 16 30.15 1021.2 0.00 322 0.213
20 16:00 79.2 60.1 52 SE 11 G 17 30.16 1021.3 0.00 496 0.193
20 15:00 80.4 58.9 48 ESE 11 G 19 30.16 1021.4 0.00 654 0.169
20 14:00 81.1 59.0 47 E 9 G 18 30.17 1021.6 0.00 784 0.143
20 13:00 81.9 59.1 82.0 66.5 46 E 10 G 17 30.18 1022.0 0.00 868 0.115

Data generated by WxSolution Version 1.9.1.5, Build 2018.05.20.